sensor_id;sensor_type;location;lat;lon;timestamp;temperature;humidity
4637;DHT22;2331;48.806;9.140;2023-08-06T00:00:20;19.00;1.00
4637;DHT22;2331;48.806;9.140;2023-08-06T00:02:47;19.00;1.00
4637;DHT22;2331;48.806;9.140;2023-08-06T00:05:13;19.00;1.00
4637;DHT22;2331;48.806;9.140;2023-08-06T00:07:43;19.00;1.00
4637;DHT22;2331;48.806;9.140;2023-08-06T00:10:10;19.00;1.00
4637;DHT22;2331;48.806;9.140;2023-08-06T00:12:36;19.00;1.00
4637;DHT22;2331;48.806;9.140;2023-08-06T00:15:05;19.00;1.00
4637;DHT22;2331;48.806;9.140;2023-08-06T00:17:33;18.90;1.00
4637;DHT22;2331;48.806;9.140;2023-08-06T00:20:00;18.90;1.00
4637;DHT22;2331;48.806;9.140;2023-08-06T00:22:30;18.90;1.00
4637;DHT22;2331;48.806;9.140;2023-08-06T00:24:56;18.80;1.00
4637;DHT22;2331;48.806;9.140;2023-08-06T00:27:23;18.80;1.00
4637;DHT22;2331;48.806;9.140;2023-08-06T00:29:50;18.70;1.00
4637;DHT22;2331;48.806;9.140;2023-08-06T00:32:18;18.60;1.00
4637;DHT22;2331;48.806;9.140;2023-08-06T00:34:45;18.40;1.00
4637;DHT22;2331;48.806;9.140;2023-08-06T00:37:12;18.40;1.00
4637;DHT22;2331;48.806;9.140;2023-08-06T00:39:38;18.30;1.00
4637;DHT22;2331;48.806;9.140;2023-08-06T00:42:05;18.30;1.00
4637;DHT22;2331;48.806;9.140;2023-08-06T00:44:32;18.20;1.00
4637;DHT22;2331;48.806;9.140;2023-08-06T00:46:59;18.20;1.00
4637;DHT22;2331;48.806;9.140;2023-08-06T00:49:27;18.20;1.00
4637;DHT22;2331;48.806;9.140;2023-08-06T00:51:54;18.20;1.00
4637;DHT22;2331;48.806;9.140;2023-08-06T00:54:21;18.20;1.00
4637;DHT22;2331;48.806;9.140;2023-08-06T00:56:48;18.20;1.00
4637;DHT22;2331;48.806;9.140;2023-08-06T00:59:15;18.20;1.00
4637;DHT22;2331;48.806;9.140;2023-08-06T01:01:41;18.20;1.00
4637;DHT22;2331;48.806;9.140;2023-08-06T01:04:08;18.30;1.00
4637;DHT22;2331;48.806;9.140;2023-08-06T01:06:40;18.20;1.00
4637;DHT22;2331;48.806;9.140;2023-08-06T01:09:21;18.30;1.00
4637;DHT22;2331;48.806;9.140;2023-08-06T01:11:57;18.20;1.00
4637;DHT22;2331;48.806;9.140;2023-08-06T01:14:30;18.20;1.00
4637;DHT22;2331;48.806;9.140;2023-08-06T01:16:58;18.20;1.00
4637;DHT22;2331;48.806;9.140;2023-08-06T01:19:25;18.20;1.00
4637;DHT22;2331;48.806;9.140;2023-08-06T01:21:53;18.10;1.00
4637;DHT22;2331;48.806;9.140;2023-08-06T01:24:19;18.00;1.00
4637;DHT22;2331;48.806;9.140;2023-08-06T01:27:01;18.00;1.00
4637;DHT22;2331;48.806;9.140;2023-08-06T01:29:35;18.00;1.00
4637;DHT22;2331;48.806;9.140;2023-08-06T01:32:03;18.00;1.00
4637;DHT22;2331;48.806;9.140;2023-08-06T01:34:33;18.00;1.00
4637;DHT22;2331;48.806;9.140;2023-08-06T01:37:01;18.00;1.00
4637;DHT22;2331;48.806;9.140;2023-08-06T01:39:28;18.00;1.00
4637;DHT22;2331;48.806;9.140;2023-08-06T01:41:55;18.00;1.00
4637;DHT22;2331;48.806;9.140;2023-08-06T01:44:22;18.00;1.00
4637;DHT22;2331;48.806;9.140;2023-08-06T01:46:49;18.00;1.00
4637;DHT22;2331;48.806;9.140;2023-08-06T01:49:15;18.00;1.00
4637;DHT22;2331;48.806;9.140;2023-08-06T01:51:42;18.00;1.00
4637;DHT22;2331;48.806;9.140;2023-08-06T01:54:10;18.00;1.00
4637;DHT22;2331;48.806;9.140;2023-08-06T01:56:37;17.90;1.00
4637;DHT22;2331;48.806;9.140;2023-08-06T01:59:03;18.00;1.00
4637;DHT22;2331;48.806;9.140;2023-08-06T02:01:30;17.90;1.00
4637;DHT22;2331;48.806;9.140;2023-08-06T02:03:57;17.90;1.00
4637;DHT22;2331;48.806;9.140;2023-08-06T02:06:23;17.90;1.00
4637;DHT22;2331;48.806;9.140;2023-08-06T02:08:50;17.90;1.00
4637;DHT22;2331;48.806;9.140;2023-08-06T02:11:18;18.00;1.00
4637;DHT22;2331;48.806;9.140;2023-08-06T02:13:45;17.90;1.00
4637;DHT22;2331;48.806;9.140;2023-08-06T02:16:12;17.90;1.00
4637;DHT22;2331;48.806;9.140;2023-08-06T02:18:39;17.90;1.00
4637;DHT22;2331;48.806;9.140;2023-08-06T02:21:05;17.90;1.00
4637;DHT22;2331;48.806;9.140;2023-08-06T02:23:32;17.90;1.00
4637;DHT22;2331;48.806;9.140;2023-08-06T02:26:00;17.80;1.00
4637;DHT22;2331;48.806;9.140;2023-08-06T02:28:28;17.80;1.00
4637;DHT22;2331;48.806;9.140;2023-08-06T02:30:54;17.90;1.00
4637;DHT22;2331;48.806;9.140;2023-08-06T02:33:21;17.80;1.00
4637;DHT22;2331;48.806;9.140;2023-08-06T02:35:48;17.80;1.00
4637;DHT22;2331;48.806;9.140;2023-08-06T02:38:15;17.80;1.00
4637;DHT22;2331;48.806;9.140;2023-08-06T02:40:44;17.80;1.00
4637;DHT22;2331;48.806;9.140;2023-08-06T02:43:11;17.80;1.00
4637;DHT22;2331;48.806;9.140;2023-08-06T02:45:39;17.70;1.00
4637;DHT22;2331;48.806;9.140;2023-08-06T02:48:06;17.70;1.00
4637;DHT22;2331;48.806;9.140;2023-08-06T02:50:38;17.70;1.00
4637;DHT22;2331;48.806;9.140;2023-08-06T02:53:04;17.60;1.00
4637;DHT22;2331;48.806;9.140;2023-08-06T02:55:31;17.60;1.00
4637;DHT22;2331;48.806;9.140;2023-08-06T02:57:59;17.60;1.00
4637;DHT22;2331;48.806;9.140;2023-08-06T03:00:26;17.60;1.00
4637;DHT22;2331;48.806;9.140;2023-08-06T03:02:54;17.60;1.00
4637;DHT22;2331;48.806;9.140;2023-08-06T03:05:20;17.50;1.00
4637;DHT22;2331;48.806;9.140;2023-08-06T03:07:47;17.60;1.00
4637;DHT22;2331;48.806;9.140;2023-08-06T03:10:14;17.60;1.00
4637;DHT22;2331;48.806;9.140;2023-08-06T03:12:40;17.50;1.00
4637;DHT22;2331;48.806;9.140;2023-08-06T03:15:08;17.50;1.00
4637;DHT22;2331;48.806;9.140;2023-08-06T03:17:35;17.50;1.00
4637;DHT22;2331;48.806;9.140;2023-08-06T03:20:04;17.50;1.00
4637;DHT22;2331;48.806;9.140;2023-08-06T03:22:31;17.50;1.00
4637;DHT22;2331;48.806;9.140;2023-08-06T03:24:57;17.50;1.00
4637;DHT22;2331;48.806;9.140;2023-08-06T03:27:24;17.50;1.00
4637;DHT22;2331;48.806;9.140;2023-08-06T03:29:51;17.50;1.00
4637;DHT22;2331;48.806;9.140;2023-08-06T03:32:17;17.50;1.00
4637;DHT22;2331;48.806;9.140;2023-08-06T03:34:44;17.50;1.00
4637;DHT22;2331;48.806;9.140;2023-08-06T03:37:12;17.50;1.00
4637;DHT22;2331;48.806;9.140;2023-08-06T03:39:39;17.40;1.00
4637;DHT22;2331;48.806;9.140;2023-08-06T03:42:06;17.50;1.00
4637;DHT22;2331;48.806;9.140;2023-08-06T03:44:33;17.50;1.00
4637;DHT22;2331;48.806;9.140;2023-08-06T03:46:59;17.50;1.00
4637;DHT22;2331;48.806;9.140;2023-08-06T03:49:26;17.50;1.00
4637;DHT22;2331;48.806;9.140;2023-08-06T03:51:53;17.50;1.00
4637;DHT22;2331;48.806;9.140;2023-08-06T03:54:21;17.50;1.00
4637;DHT22;2331;48.806;9.140;2023-08-06T03:56:47;17.50;1.00
4637;DHT22;2331;48.806;9.140;2023-08-06T03:59:14;17.50;1.00
4637;DHT22;2331;48.806;9.140;2023-08-06T04:01:41;17.50;1.00
4637;DHT22;2331;48.806;9.140;2023-08-06T04:04:07;17.40;1.00
4637;DHT22;2331;48.806;9.140;2023-08-06T04:06:34;17.40;1.00
4637;DHT22;2331;48.806;9.140;2023-08-06T04:09:01;17.40;1.00
4637;DHT22;2331;48.806;9.140;2023-08-06T04:11:29;17.40;1.00
4637;DHT22;2331;48.806;9.140;2023-08-06T04:13:55;17.40;1.00
4637;DHT22;2331;48.806;9.140;2023-08-06T04:16:22;17.40;1.00
4637;DHT22;2331;48.806;9.140;2023-08-06T04:18:49;17.40;1.00
4637;DHT22;2331;48.806;9.140;2023-08-06T04:21:15;17.40;1.00
4637;DHT22;2331;48.806;9.140;2023-08-06T04:23:42;17.40;1.00
4637;DHT22;2331;48.806;9.140;2023-08-06T04:26:09;17.50;1.00
4637;DHT22;2331;48.806;9.140;2023-08-06T04:28:37;17.50;1.00
4637;DHT22;2331;48.806;9.140;2023-08-06T04:31:03;17.50;1.00
4637;DHT22;2331;48.806;9.140;2023-08-06T04:33:30;17.50;1.00
4637;DHT22;2331;48.806;9.140;2023-08-06T04:35:57;17.50;1.00
4637;DHT22;2331;48.806;9.140;2023-08-06T04:38:24;17.50;1.00
4637;DHT22;2331;48.806;9.140;2023-08-06T04:40:51;17.50;1.00
4637;DHT22;2331;48.806;9.140;2023-08-06T04:43:18;17.50;1.00
4637;DHT22;2331;48.806;9.140;2023-08-06T04:45:49;17.50;1.00
4637;DHT22;2331;48.806;9.140;2023-08-06T04:48:16;17.50;1.00
4637;DHT22;2331;48.806;9.140;2023-08-06T04:50:44;17.50;1.00
4637;DHT22;2331;48.806;9.140;2023-08-06T04:53:11;17.50;1.00
4637;DHT22;2331;48.806;9.140;2023-08-06T04:55:37;17.50;1.00
4637;DHT22;2331;48.806;9.140;2023-08-06T04:58:04;17.50;1.00
4637;DHT22;2331;48.806;9.140;2023-08-06T05:00:32;17.50;1.00
4637;DHT22;2331;48.806;9.140;2023-08-06T05:03:01;17.50;1.00
4637;DHT22;2331;48.806;9.140;2023-08-06T05:05:27;17.40;1.00
4637;DHT22;2331;48.806;9.140;2023-08-06T05:07:55;17.30;1.00
4637;DHT22;2331;48.806;9.140;2023-08-06T05:10:24;17.30;1.00
4637;DHT22;2331;48.806;9.140;2023-08-06T05:12:50;17.30;1.00
4637;DHT22;2331;48.806;9.140;2023-08-06T05:15:17;17.30;1.00
4637;DHT22;2331;48.806;9.140;2023-08-06T05:17:44;17.30;1.00
4637;DHT22;2331;48.806;9.140;2023-08-06T05:20:12;17.30;1.00
4637;DHT22;2331;48.806;9.140;2023-08-06T05:22:39;17.30;1.00
4637;DHT22;2331;48.806;9.140;2023-08-06T05:25:06;17.30;1.00
4637;DHT22;2331;48.806;9.140;2023-08-06T05:27:33;17.30;1.00
4637;DHT22;2331;48.806;9.140;2023-08-06T05:30:00;17.30;1.00
4637;DHT22;2331;48.806;9.140;2023-08-06T05:32:26;17.40;1.00
4637;DHT22;2331;48.806;9.140;2023-08-06T05:34:53;17.40;1.00
4637;DHT22;2331;48.806;9.140;2023-08-06T05:37:21;17.40;1.00
4637;DHT22;2331;48.806;9.140;2023-08-06T05:39:48;17.40;1.00
4637;DHT22;2331;48.806;9.140;2023-08-06T05:42:15;17.50;1.00
4637;DHT22;2331;48.806;9.140;2023-08-06T05:44:41;17.50;1.00
4637;DHT22;2331;48.806;9.140;2023-08-06T05:47:08;17.40;1.00
4637;DHT22;2331;48.806;9.140;2023-08-06T05:49:35;17.50;1.00
4637;DHT22;2331;48.806;9.140;2023-08-06T05:52:01;17.50;1.00
4637;DHT22;2331;48.806;9.140;2023-08-06T05:54:32;17.50;1.00
4637;DHT22;2331;48.806;9.140;2023-08-06T05:56:59;17.40;1.00
4637;DHT22;2331;48.806;9.140;2023-08-06T05:59:26;17.40;1.00
4637;DHT22;2331;48.806;9.140;2023-08-06T06:01:52;17.40;1.00
4637;DHT22;2331;48.806;9.140;2023-08-06T06:04:20;17.40;1.00
4637;DHT22;2331;48.806;9.140;2023-08-06T06:06:46;17.40;1.00
4637;DHT22;2331;48.806;9.140;2023-08-06T06:09:13;17.40;1.00
4637;DHT22;2331;48.806;9.140;2023-08-06T06:11:41;17.30;1.00
4637;DHT22;2331;48.806;9.140;2023-08-06T06:14:08;17.30;1.00
4637;DHT22;2331;48.806;9.140;2023-08-06T06:16:35;17.30;1.00
4637;DHT22;2331;48.806;9.140;2023-08-06T06:19:01;17.30;1.00
4637;DHT22;2331;48.806;9.140;2023-08-06T06:21:28;17.30;1.00
4637;DHT22;2331;48.806;9.140;2023-08-06T06:23:55;17.30;1.00
4637;DHT22;2331;48.806;9.140;2023-08-06T06:26:22;17.40;1.00
4637;DHT22;2331;48.806;9.140;2023-08-06T06:28:50;17.30;1.00
4637;DHT22;2331;48.806;9.140;2023-08-06T06:31:17;17.40;1.00
4637;DHT22;2331;48.806;9.140;2023-08-06T06:33:43;17.30;1.00
4637;DHT22;2331;48.806;9.140;2023-08-06T06:36:10;17.20;1.00
4637;DHT22;2331;48.806;9.140;2023-08-06T06:38:37;17.20;1.00
4637;DHT22;2331;48.806;9.140;2023-08-06T06:41:04;17.20;1.00
4637;DHT22;2331;48.806;9.140;2023-08-06T06:43:30;17.20;1.00
4637;DHT22;2331;48.806;9.140;2023-08-06T06:45:59;17.30;1.00
4637;DHT22;2331;48.806;9.140;2023-08-06T06:48:27;17.40;1.00
4637;DHT22;2331;48.806;9.140;2023-08-06T06:50:54;17.40;1.00
4637;DHT22;2331;48.806;9.140;2023-08-06T06:53:21;17.50;1.00
4637;DHT22;2331;48.806;9.140;2023-08-06T06:55:52;17.50;1.00
4637;DHT22;2331;48.806;9.140;2023-08-06T06:58:20;17.40;1.00
4637;DHT22;2331;48.806;9.140;2023-08-06T07:00:47;17.30;1.00
4637;DHT22;2331;48.806;9.140;2023-08-06T07:03:15;17.30;1.00
4637;DHT22;2331;48.806;9.140;2023-08-06T07:05:43;17.40;1.00
4637;DHT22;2331;48.806;9.140;2023-08-06T07:08:09;17.40;1.00
4637;DHT22;2331;48.806;9.140;2023-08-06T07:10:36;17.40;1.00
4637;DHT22;2331;48.806;9.140;2023-08-06T07:13:03;17.40;1.00
4637;DHT22;2331;48.806;9.140;2023-08-06T07:15:30;17.40;1.00
4637;DHT22;2331;48.806;9.140;2023-08-06T07:17:56;17.40;1.00
4637;DHT22;2331;48.806;9.140;2023-08-06T07:20:25;17.40;1.00
4637;DHT22;2331;48.806;9.140;2023-08-06T07:22:51;17.40;1.00
4637;DHT22;2331;48.806;9.140;2023-08-06T07:25:18;17.50;1.00
4637;DHT22;2331;48.806;9.140;2023-08-06T07:27:45;17.50;1.00
4637;DHT22;2331;48.806;9.140;2023-08-06T07:30:11;17.50;1.00
4637;DHT22;2331;48.806;9.140;2023-08-06T07:32:38;17.40;1.00
4637;DHT22;2331;48.806;9.140;2023-08-06T07:35:06;17.50;1.00
4637;DHT22;2331;48.806;9.140;2023-08-06T07:37:36;17.50;1.00
4637;DHT22;2331;48.806;9.140;2023-08-06T07:40:03;17.50;1.00
4637;DHT22;2331;48.806;9.140;2023-08-06T07:42:30;17.40;1.00
4637;DHT22;2331;48.806;9.140;2023-08-06T07:44:58;17.40;1.00
4637;DHT22;2331;48.806;9.140;2023-08-06T07:47:25;17.40;1.00
4637;DHT22;2331;48.806;9.140;2023-08-06T07:49:52;17.40;1.00
4637;DHT22;2331;48.806;9.140;2023-08-06T07:52:19;17.50;1.00
4637;DHT22;2331;48.806;9.140;2023-08-06T07:54:47;17.40;1.00
4637;DHT22;2331;48.806;9.140;2023-08-06T07:57:13;17.30;1.00
4637;DHT22;2331;48.806;9.140;2023-08-06T07:59:40;17.40;1.00
4637;DHT22;2331;48.806;9.140;2023-08-06T08:02:07;17.40;1.00
4637;DHT22;2331;48.806;9.140;2023-08-06T08:04:34;17.40;1.00
4637;DHT22;2331;48.806;9.140;2023-08-06T08:07:01;17.40;1.00
4637;DHT22;2331;48.806;9.140;2023-08-06T08:09:27;17.40;1.00
4637;DHT22;2331;48.806;9.140;2023-08-06T08:11:56;17.40;1.00
4637;DHT22;2331;48.806;9.140;2023-08-06T08:14:24;17.50;1.00
4637;DHT22;2331;48.806;9.140;2023-08-06T08:16:51;17.60;1.00
4637;DHT22;2331;48.806;9.140;2023-08-06T08:19:17;17.60;1.00
4637;DHT22;2331;48.806;9.140;2023-08-06T08:21:45;17.70;1.00
4637;DHT22;2331;48.806;9.140;2023-08-06T08:24:11;17.80;1.00
4637;DHT22;2331;48.806;9.140;2023-08-06T08:26:38;17.80;1.00
4637;DHT22;2331;48.806;9.140;2023-08-06T08:29:06;17.70;1.00
4637;DHT22;2331;48.806;9.140;2023-08-06T08:31:33;17.80;1.00
4637;DHT22;2331;48.806;9.140;2023-08-06T08:34:04;17.90;1.00
4637;DHT22;2331;48.806;9.140;2023-08-06T08:36:31;17.90;1.00
4637;DHT22;2331;48.806;9.140;2023-08-06T08:38:58;18.00;1.00
4637;DHT22;2331;48.806;9.140;2023-08-06T08:41:25;18.00;1.00
4637;DHT22;2331;48.806;9.140;2023-08-06T08:43:54;17.90;1.00
4637;DHT22;2331;48.806;9.140;2023-08-06T08:46:22;18.00;1.00
4637;DHT22;2331;48.806;9.140;2023-08-06T08:48:50;18.10;1.00
4637;DHT22;2331;48.806;9.140;2023-08-06T08:51:17;18.00;1.00
4637;DHT22;2331;48.806;9.140;2023-08-06T08:53:45;18.20;1.00
4637;DHT22;2331;48.806;9.140;2023-08-06T08:56:13;18.10;1.00
4637;DHT22;2331;48.806;9.140;2023-08-06T08:58:39;18.10;1.00
4637;DHT22;2331;48.806;9.140;2023-08-06T09:01:07;18.00;1.00
4637;DHT22;2331;48.806;9.140;2023-08-06T09:03:36;18.10;1.00
4637;DHT22;2331;48.806;9.140;2023-08-06T09:06:04;18.10;1.00
4637;DHT22;2331;48.806;9.140;2023-08-06T09:08:35;18.10;1.00
4637;DHT22;2331;48.806;9.140;2023-08-06T09:11:04;18.10;1.00
4637;DHT22;2331;48.806;9.140;2023-08-06T09:13:31;18.20;1.00
4637;DHT22;2331;48.806;9.140;2023-08-06T09:15:58;18.20;1.00
4637;DHT22;2331;48.806;9.140;2023-08-06T09:18:28;18.10;1.00
4637;DHT22;2331;48.806;9.140;2023-08-06T09:20:57;18.10;1.00
4637;DHT22;2331;48.806;9.140;2023-08-06T09:23:28;18.10;1.00
4637;DHT22;2331;48.806;9.140;2023-08-06T09:25:56;18.10;1.00
4637;DHT22;2331;48.806;9.140;2023-08-06T09:28:23;18.20;1.00
4637;DHT22;2331;48.806;9.140;2023-08-06T09:30:52;18.20;1.00
4637;DHT22;2331;48.806;9.140;2023-08-06T09:33:22;18.10;1.00
4637;DHT22;2331;48.806;9.140;2023-08-06T09:35:49;18.10;1.00
4637;DHT22;2331;48.806;9.140;2023-08-06T09:38:17;18.20;1.00
4637;DHT22;2331;48.806;9.140;2023-08-06T09:40:44;18.20;1.00
4637;DHT22;2331;48.806;9.140;2023-08-06T09:43:11;18.20;1.00
4637;DHT22;2331;48.806;9.140;2023-08-06T09:45:38;18.10;1.00
4637;DHT22;2331;48.806;9.140;2023-08-06T09:48:07;18.10;1.00
4637;DHT22;2331;48.806;9.140;2023-08-06T09:50:35;18.20;1.00
4637;DHT22;2331;48.806;9.140;2023-08-06T09:53:03;18.30;1.00
4637;DHT22;2331;48.806;9.140;2023-08-06T09:55:32;18.30;1.00
4637;DHT22;2331;48.806;9.140;2023-08-06T09:57:59;18.20;1.00
4637;DHT22;2331;48.806;9.140;2023-08-06T10:00:26;18.20;1.00
4637;DHT22;2331;48.806;9.140;2023-08-06T10:02:54;18.20;1.00
4637;DHT22;2331;48.806;9.140;2023-08-06T10:05:22;18.10;1.00
4637;DHT22;2331;48.806;9.140;2023-08-06T10:07:49;18.20;1.00
4637;DHT22;2331;48.806;9.140;2023-08-06T10:10:17;18.00;1.00
4637;DHT22;2331;48.806;9.140;2023-08-06T10:12:48;18.10;1.00
4637;DHT22;2331;48.806;9.140;2023-08-06T10:15:17;18.10;1.00
4637;DHT22;2331;48.806;9.140;2023-08-06T10:17:47;18.10;1.00
4637;DHT22;2331;48.806;9.140;2023-08-06T10:20:15;18.20;1.00
4637;DHT22;2331;48.806;9.140;2023-08-06T10:22:43;18.20;1.00
4637;DHT22;2331;48.806;9.140;2023-08-06T10:25:10;18.10;1.00
4637;DHT22;2331;48.806;9.140;2023-08-06T10:27:40;18.20;1.00
4637;DHT22;2331;48.806;9.140;2023-08-06T10:30:25;18.10;1.00
4637;DHT22;2331;48.806;9.140;2023-08-06T10:32:53;18.10;1.00
4637;DHT22;2331;48.806;9.140;2023-08-06T10:35:29;18.20;1.00
4637;DHT22;2331;48.806;9.140;2023-08-06T10:37:58;18.00;1.00
4637;DHT22;2331;48.806;9.140;2023-08-06T10:40:25;18.00;1.00
4637;DHT22;2331;48.806;9.140;2023-08-06T10:42:52;18.10;1.00
4637;DHT22;2331;48.806;9.140;2023-08-06T10:45:19;18.10;1.00
4637;DHT22;2331;48.806;9.140;2023-08-06T10:47:48;18.20;1.00
4637;DHT22;2331;48.806;9.140;2023-08-06T10:50:16;18.20;1.00
4637;DHT22;2331;48.806;9.140;2023-08-06T10:52:45;18.30;1.00
4637;DHT22;2331;48.806;9.140;2023-08-06T10:55:12;18.40;1.00
4637;DHT22;2331;48.806;9.140;2023-08-06T10:57:39;18.20;1.00
4637;DHT22;2331;48.806;9.140;2023-08-06T11:00:07;18.20;1.00
4637;DHT22;2331;48.806;9.140;2023-08-06T11:02:35;18.00;1.00
4637;DHT22;2331;48.806;9.140;2023-08-06T11:05:07;17.90;1.00
4637;DHT22;2331;48.806;9.140;2023-08-06T11:07:34;17.70;1.00
4637;DHT22;2331;48.806;9.140;2023-08-06T11:10:02;17.80;1.00
4637;DHT22;2331;48.806;9.140;2023-08-06T11:12:29;17.90;1.00
4637;DHT22;2331;48.806;9.140;2023-08-06T11:14:56;18.00;1.00
4637;DHT22;2331;48.806;9.140;2023-08-06T11:17:22;17.80;1.00
4637;DHT22;2331;48.806;9.140;2023-08-06T11:19:50;17.60;1.00
4637;DHT22;2331;48.806;9.140;2023-08-06T11:22:19;17.60;1.00
4637;DHT22;2331;48.806;9.140;2023-08-06T11:24:46;17.70;1.00
4637;DHT22;2331;48.806;9.140;2023-08-06T11:27:13;17.70;1.00
4637;DHT22;2331;48.806;9.140;2023-08-06T11:29:40;17.60;1.00
4637;DHT22;2331;48.806;9.140;2023-08-06T11:32:08;17.60;1.00
4637;DHT22;2331;48.806;9.140;2023-08-06T11:34:34;17.60;1.00
4637;DHT22;2331;48.806;9.140;2023-08-06T11:37:03;17.50;1.00
4637;DHT22;2331;48.806;9.140;2023-08-06T11:39:32;17.60;1.00
4637;DHT22;2331;48.806;9.140;2023-08-06T11:41:59;17.60;1.00
4637;DHT22;2331;48.806;9.140;2023-08-06T11:44:30;17.60;1.00
4637;DHT22;2331;48.806;9.140;2023-08-06T11:46:57;17.50;1.00
4637;DHT22;2331;48.806;9.140;2023-08-06T11:49:40;17.50;1.00
4637;DHT22;2331;48.806;9.140;2023-08-06T11:52:11;17.50;1.00
4637;DHT22;2331;48.806;9.140;2023-08-06T11:54:40;17.30;1.00
4637;DHT22;2331;48.806;9.140;2023-08-06T11:57:07;17.30;1.00
4637;DHT22;2331;48.806;9.140;2023-08-06T11:59:34;17.30;1.00
4637;DHT22;2331;48.806;9.140;2023-08-06T12:02:02;17.20;1.00
4637;DHT22;2331;48.806;9.140;2023-08-06T12:04:31;17.20;1.00
4637;DHT22;2331;48.806;9.140;2023-08-06T12:07:04;17.20;1.00
4637;DHT22;2331;48.806;9.140;2023-08-06T12:09:33;17.00;1.00
4637;DHT22;2331;48.806;9.140;2023-08-06T12:12:03;16.80;1.00
4637;DHT22;2331;48.806;9.140;2023-08-06T12:14:30;16.80;1.00
4637;DHT22;2331;48.806;9.140;2023-08-06T12:16:56;16.70;1.00
4637;DHT22;2331;48.806;9.140;2023-08-06T12:19:23;16.70;1.00
4637;DHT22;2331;48.806;9.140;2023-08-06T12:21:49;16.80;1.00
4637;DHT22;2331;48.806;9.140;2023-08-06T12:24:16;16.70;1.00
4637;DHT22;2331;48.806;9.140;2023-08-06T12:26:43;16.80;1.00
4637;DHT22;2331;48.806;9.140;2023-08-06T12:29:12;16.90;1.00
4637;DHT22;2331;48.806;9.140;2023-08-06T12:31:39;16.70;1.00
4637;DHT22;2331;48.806;9.140;2023-08-06T12:34:06;16.80;1.00
4637;DHT22;2331;48.806;9.140;2023-08-06T12:36:33;16.80;1.00
4637;DHT22;2331;48.806;9.140;2023-08-06T12:38:59;16.90;1.00
4637;DHT22;2331;48.806;9.140;2023-08-06T12:41:26;16.90;1.00
4637;DHT22;2331;48.806;9.140;2023-08-06T12:43:53;17.00;1.00
4637;DHT22;2331;48.806;9.140;2023-08-06T12:46:21;17.20;1.00
4637;DHT22;2331;48.806;9.140;2023-08-06T12:48:48;17.30;1.00
4637;DHT22;2331;48.806;9.140;2023-08-06T12:51:16;17.30;1.00
4637;DHT22;2331;48.806;9.140;2023-08-06T12:53:43;17.40;1.00
4637;DHT22;2331;48.806;9.140;2023-08-06T12:56:09;17.60;1.00
4637;DHT22;2331;48.806;9.140;2023-08-06T12:58:36;17.40;1.00
4637;DHT22;2331;48.806;9.140;2023-08-06T13:01:05;17.70;1.00
4637;DHT22;2331;48.806;9.140;2023-08-06T13:03:34;17.80;1.00
4637;DHT22;2331;48.806;9.140;2023-08-06T13:06:01;17.90;1.00
4637;DHT22;2331;48.806;9.140;2023-08-06T13:08:28;17.90;1.00
4637;DHT22;2331;48.806;9.140;2023-08-06T13:10:56;17.80;1.00
4637;DHT22;2331;48.806;9.140;2023-08-06T13:13:23;18.00;1.00
4637;DHT22;2331;48.806;9.140;2023-08-06T13:15:52;18.10;1.00
4637;DHT22;2331;48.806;9.140;2023-08-06T13:18:20;18.10;1.00
4637;DHT22;2331;48.806;9.140;2023-08-06T13:20:48;18.20;1.00
4637;DHT22;2331;48.806;9.140;2023-08-06T13:23:17;18.10;1.00
4637;DHT22;2331;48.806;9.140;2023-08-06T13:25:44;17.80;1.00
4637;DHT22;2331;48.806;9.140;2023-08-06T13:28:11;17.90;1.00
4637;DHT22;2331;48.806;9.140;2023-08-06T13:30:39;18.10;1.00
4637;DHT22;2331;48.806;9.140;2023-08-06T13:33:07;18.00;1.00
4637;DHT22;2331;48.806;9.140;2023-08-06T13:35:34;18.00;1.00
4637;DHT22;2331;48.806;9.140;2023-08-06T13:38:02;18.00;1.00
4637;DHT22;2331;48.806;9.140;2023-08-06T13:40:29;18.00;1.00
4637;DHT22;2331;48.806;9.140;2023-08-06T13:42:56;18.10;1.00
4637;DHT22;2331;48.806;9.140;2023-08-06T13:45:23;18.10;1.00
4637;DHT22;2331;48.806;9.140;2023-08-06T13:47:49;18.10;1.00
4637;DHT22;2331;48.806;9.140;2023-08-06T13:50:16;18.30;1.00
4637;DHT22;2331;48.806;9.140;2023-08-06T13:52:44;18.30;1.00
4637;DHT22;2331;48.806;9.140;2023-08-06T13:55:12;18.10;1.00
4637;DHT22;2331;48.806;9.140;2023-08-06T13:57:39;18.00;1.00
4637;DHT22;2331;48.806;9.140;2023-08-06T14:00:07;18.00;1.00
4637;DHT22;2331;48.806;9.140;2023-08-06T14:02:35;18.00;1.00
4637;DHT22;2331;48.806;9.140;2023-08-06T14:05:01;18.10;1.00
4637;DHT22;2331;48.806;9.140;2023-08-06T14:07:28;18.00;1.00
4637;DHT22;2331;48.806;9.140;2023-08-06T14:09:55;18.00;1.00
4637;DHT22;2331;48.806;9.140;2023-08-06T14:12:24;18.10;1.00
4637;DHT22;2331;48.806;9.140;2023-08-06T14:14:51;17.90;1.00
4637;DHT22;2331;48.806;9.140;2023-08-06T14:17:18;17.60;1.00
4637;DHT22;2331;48.806;9.140;2023-08-06T14:19:47;17.80;1.00
4637;DHT22;2331;48.806;9.140;2023-08-06T14:22:14;17.80;1.00
4637;DHT22;2331;48.806;9.140;2023-08-06T14:24:41;17.90;1.00
4637;DHT22;2331;48.806;9.140;2023-08-06T14:27:08;17.90;1.00
4637;DHT22;2331;48.806;9.140;2023-08-06T14:29:37;18.10;1.00
4637;DHT22;2331;48.806;9.140;2023-08-06T14:32:05;18.00;1.00
4637;DHT22;2331;48.806;9.140;2023-08-06T14:34:32;18.10;1.00
4637;DHT22;2331;48.806;9.140;2023-08-06T14:37:00;18.30;1.00
4637;DHT22;2331;48.806;9.140;2023-08-06T14:39:28;18.30;1.00
4637;DHT22;2331;48.806;9.140;2023-08-06T14:41:54;18.40;1.00
4637;DHT22;2331;48.806;9.140;2023-08-06T14:44:21;18.40;1.00
4637;DHT22;2331;48.806;9.140;2023-08-06T14:46:50;18.30;1.00
4637;DHT22;2331;48.806;9.140;2023-08-06T14:49:17;18.40;1.00
4637;DHT22;2331;48.806;9.140;2023-08-06T14:51:43;18.50;1.00
4637;DHT22;2331;48.806;9.140;2023-08-06T14:54:10;18.40;1.00
4637;DHT22;2331;48.806;9.140;2023-08-06T14:56:37;18.40;1.00
4637;DHT22;2331;48.806;9.140;2023-08-06T14:59:04;18.20;1.00
4637;DHT22;2331;48.806;9.140;2023-08-06T15:01:31;18.30;1.00
4637;DHT22;2331;48.806;9.140;2023-08-06T15:03:59;18.30;1.00
4637;DHT22;2331;48.806;9.140;2023-08-06T15:06:26;18.20;1.00
4637;DHT22;2331;48.806;9.140;2023-08-06T15:08:53;18.10;1.00
4637;DHT22;2331;48.806;9.140;2023-08-06T15:11:23;17.90;1.00
4637;DHT22;2331;48.806;9.140;2023-08-06T15:13:51;17.90;1.00
4637;DHT22;2331;48.806;9.140;2023-08-06T15:16:18;18.00;1.00
4637;DHT22;2331;48.806;9.140;2023-08-06T15:18:44;18.10;1.00
4637;DHT22;2331;48.806;9.140;2023-08-06T15:21:12;18.20;1.00
4637;DHT22;2331;48.806;9.140;2023-08-06T15:23:39;18.20;1.00
4637;DHT22;2331;48.806;9.140;2023-08-06T15:26:06;18.00;1.00
4637;DHT22;2331;48.806;9.140;2023-08-06T15:28:33;18.10;1.00
4637;DHT22;2331;48.806;9.140;2023-08-06T15:31:01;18.10;1.00
4637;DHT22;2331;48.806;9.140;2023-08-06T15:33:29;18.20;1.00
4637;DHT22;2331;48.806;9.140;2023-08-06T15:35:56;18.40;1.00
4637;DHT22;2331;48.806;9.140;2023-08-06T15:38:24;18.40;1.00
4637;DHT22;2331;48.806;9.140;2023-08-06T15:40:51;18.20;1.00
4637;DHT22;2331;48.806;9.140;2023-08-06T15:43:17;18.30;1.00
4637;DHT22;2331;48.806;9.140;2023-08-06T15:45:44;18.40;1.00
4637;DHT22;2331;48.806;9.140;2023-08-06T15:48:11;18.30;1.00
4637;DHT22;2331;48.806;9.140;2023-08-06T15:50:38;18.40;1.00
4637;DHT22;2331;48.806;9.140;2023-08-06T15:53:05;18.40;1.00
4637;DHT22;2331;48.806;9.140;2023-08-06T15:55:33;18.40;1.00
4637;DHT22;2331;48.806;9.140;2023-08-06T15:58:02;18.50;1.00
4637;DHT22;2331;48.806;9.140;2023-08-06T16:00:29;18.60;1.00
4637;DHT22;2331;48.806;9.140;2023-08-06T16:02:56;18.40;1.00
4637;DHT22;2331;48.806;9.140;2023-08-06T16:05:23;18.30;1.00
4637;DHT22;2331;48.806;9.140;2023-08-06T16:07:50;18.30;1.00
4637;DHT22;2331;48.806;9.140;2023-08-06T16:10:19;18.30;1.00
4637;DHT22;2331;48.806;9.140;2023-08-06T16:12:47;18.20;1.00
4637;DHT22;2331;48.806;9.140;2023-08-06T16:15:13;18.20;1.00
4637;DHT22;2331;48.806;9.140;2023-08-06T16:17:44;18.30;1.00